Cartoogechaye, North Carolina
Current Conditions -  °F | °C
As of 9:55 PM on Thursday 27 Nov 2014 (Local Time) from KRHP Reporting Station
Overcast Overcast  
Wind Chill: -5°   Ceiling: 3800
Heat Index: -1°   Visibility: 10mi
Dew Point: -5°   Wind: 9mph
Humidity: 74%   Direction: 50°NE
Pressure: 30.32"   Gusts: NA
Location:  35.1737°N, 83.4215°W
Report Text: KRHP 280255Z AUTO 05008KT 10SM SCT032 OVC038 M01/M05 A3032 RMK AO2 T10061047
Loading
Personal Weather Stations






























Interactive Weather Map New forecast layout! Learn more

10-Day Weather Forecast

Advertisements
Track Severe Weather on mobile